DUB weather

Dublin Airport
Dublin, County Dublin, Ireland

Public forecast

Using degrees Celsius for public forecast. Weather courtesy of forecast.io.

METAR (pilot weather report)

Retrieved 2018/04/26 20:30 UTC (0 seconds ago):

EIDW 262030Z 26005KT 9999 FEW018 BKN200 06/03 Q1012 NOSIG

TAF (pilot weather forecast)

Forecast is more than 6 hours old.

Retrieved 2018/04/26 12:21 UTC (8 hours ago):

TAF COR EIDW 261116Z 2612/2712 26018KT 9999 FEW020 SCT035 TEMPO 2612/2614 26018G28KT TEMPO 2612/2620 -SHRA SCT018CB BECMG 2615/2618 29012KT BECMG 2618/2620 VRB03KT BECMG 2702/2704 36005KT BECMG 2706/2708 04010KT TEMPO 2707/2712 5000 SHRA BKN013 SCT018CB BECMG 2709/2712 07011KT